Johnstown, Ohio
Current Conditions -  °F | °C
As of 10:51 AM on Monday 22 Dec 2014 (Local Time) from KCMH Reporting Station
Overcast Overcast  
Wind Chill:   Ceiling: 6000
Heat Index:   Visibility: 7mi
Dew Point: -2°   Wind: 6mph
Humidity: 73%   Direction: 110°ESE
Pressure: 30.05"   Gusts: NA
Location:  40.15°N, 82.69°W
Report Text: KCMH 221551Z 11005KT 7SM BKN060 OVC110 03/M02 A3005 RMK AO2 SLP182 T00281017
Loading
Personal Weather Stations






























Interactive Weather Map New forecast layout! Learn more

10-Day Weather Forecast

Advertisements
Track Severe Weather on mobile